createdAt,value
2019-02-23T00:01:35.641Z,18.27
2019-02-23T00:06:38.932Z,17.23
2019-02-23T00:11:42.218Z,17.80
2019-02-23T00:16:45.509Z,18.37
2019-02-23T00:21:48.797Z,17.00
2019-02-23T00:26:52.092Z,16.70
2019-02-23T00:31:55.372Z,17.30
2019-02-23T00:36:58.905Z,17.00
2019-02-23T00:42:02.204Z,16.80
2019-02-23T00:47:05.489Z,16.37
2019-02-23T00:52:08.771Z,17.77
2019-02-23T00:57:12.307Z,16.90
2019-02-23T01:02:15.838Z,15.73
2019-02-23T01:07:21.156Z,15.43
2019-02-23T01:12:24.701Z,16.97
2019-02-23T01:17:28.316Z,16.17
2019-02-23T01:22:31.686Z,16.67
2019-02-23T01:27:35.231Z,14.80
2019-02-23T01:32:38.514Z,16.07
2019-02-23T01:37:41.817Z,15.87
2019-02-23T01:42:45.333Z,14.93
2019-02-23T01:47:48.878Z,14.83
2019-02-23T01:52:52.465Z,15.60
2019-02-23T01:57:55.752Z,14.63
2019-02-23T02:02:59.041Z,14.77
2019-02-23T02:08:02.333Z,13.63
2019-02-23T02:13:05.688Z,13.10
2019-02-23T02:18:08.970Z,13.23
2019-02-23T02:23:12.504Z,13.20
2019-02-23T02:28:16.031Z,12.83
2019-02-23T02:33:19.569Z,12.77
2019-02-23T02:38:22.850Z,12.80
2019-02-23T02:43:26.137Z,13.37
2019-02-23T02:48:29.664Z,12.97
2019-02-23T02:53:32.960Z,13.40
2019-02-23T02:58:36.316Z,12.67
2019-02-23T03:03:39.546Z,13.10
2019-02-23T03:08:43.069Z,12.20
2019-02-23T03:13:46.364Z,13.23
2019-02-23T03:18:49.913Z,12.60
2019-02-23T03:23:53.201Z,11.57
2019-02-23T03:28:56.477Z,11.80
2019-02-23T03:34:00.002Z,10.97
2019-02-23T03:39:03.904Z,10.73
2019-02-23T03:44:07.194Z,10.87
2019-02-23T03:49:10.727Z,11.77
2019-02-23T03:54:14.280Z,12.07
2019-02-23T03:59:17.637Z,10.80
2019-02-23T04:04:20.926Z,10.63
2019-02-23T04:09:24.211Z,10.47
2019-02-23T04:14:27.512Z,10.23
2019-02-23T04:19:30.801Z,11.17
2019-02-23T04:24:34.325Z,10.40
2019-02-23T04:29:37.620Z,11.63
2019-02-23T04:34:41.145Z,11.07
2019-02-23T04:39:44.426Z,11.23
2019-02-23T04:44:47.709Z,10.40
2019-02-23T04:49:55.309Z,11.27
2019-02-23T04:54:58.637Z,10.37
2019-02-23T05:00:01.953Z,11.53
2019-02-23T05:05:06.112Z,12.10
2019-02-23T05:10:09.454Z,9.93
2019-02-23T05:15:12.747Z,11.57
2019-02-23T05:20:16.032Z,10.40
2019-02-23T05:25:19.322Z,12.33
2019-02-23T05:30:22.614Z,12.70
2019-02-23T05:35:26.132Z,11.90
2019-02-23T05:40:29.425Z,10.40
2019-02-23T05:45:32.952Z,10.67
2019-02-23T05:50:38.052Z,11.17
2019-02-23T05:55:41.574Z,10.80
2019-02-23T06:00:44.857Z,10.77
2019-02-23T06:05:48.147Z,10.23
2019-02-23T06:10:51.676Z,10.50
2019-02-23T06:15:54.959Z,10.83
2019-02-23T06:20:58.488Z,11.63
2019-02-23T06:26:02.187Z,11.03
2019-02-23T06:31:05.640Z,11.07
2019-02-23T06:36:09.196Z,10.80
2019-02-23T06:41:12.732Z,10.33
2019-02-23T06:46:16.274Z,10.87
2019-02-23T06:51:19.561Z,12.00
2019-02-23T06:56:22.859Z,10.50
2019-02-23T07:01:26.399Z,10.10
2019-02-23T07:06:29.926Z,9.90
2019-02-23T07:11:33.462Z,10.43
2019-02-23T07:16:37.005Z,13.03
2019-02-23T07:21:40.987Z,11.37
2019-02-23T07:26:44.605Z,11.03
2019-02-23T07:31:48.155Z,10.70
2019-02-23T07:36:51.684Z,10.53
2019-02-23T07:41:56.440Z,12.40
2019-02-23T07:47:09.061Z,10.57
2019-02-23T07:52:14.277Z,10.47
2019-02-23T07:57:19.371Z,11.17
2019-02-23T08:02:29.996Z,11.83
2019-02-23T08:07:33.535Z,13.33
2019-02-23T08:12:37.079Z,12.80
2019-02-23T08:17:40.356Z,11.90
2019-02-23T08:22:43.883Z,10.17
2019-02-23T08:27:47.208Z,8.77
2019-02-23T08:32:50.724Z,9.77
2019-02-23T08:37:53.994Z,9.40
2019-02-23T08:42:57.530Z,9.27
2019-02-23T08:48:00.848Z,9.80
2019-02-23T08:53:04.335Z,9.73
2019-02-23T08:58:08.231Z,8.53
2019-02-23T09:03:11.511Z,9.63
2019-02-23T09:08:14.794Z,8.10
2019-02-23T09:13:18.084Z,9.03
2019-02-23T09:18:21.648Z,8.87
2019-02-23T09:23:24.945Z,8.37
2019-02-23T09:28:28.701Z,8.73
2019-02-23T09:33:31.991Z,8.40
2019-02-23T09:38:35.531Z,7.97
2019-02-23T09:43:39.148Z,6.77
2019-02-23T09:48:42.506Z,7.63
2019-02-23T09:53:46.101Z,7.00
2019-02-23T09:58:49.382Z,6.87
2019-02-23T10:03:52.652Z,7.07
2019-02-23T10:08:56.033Z,6.77
2019-02-23T10:13:59.393Z,7.47
2019-02-23T10:19:02.683Z,6.70
2019-02-23T10:24:06.242Z,6.63
2019-02-23T10:29:09.619Z,7.10
2019-02-23T10:34:13.193Z,7.23
2019-02-23T10:39:16.459Z,6.70
2019-02-23T10:44:20.056Z,6.13
2019-02-23T10:49:23.551Z,7.03
2019-02-23T10:54:26.836Z,7.33
2019-02-23T10:59:30.356Z,6.67
2019-02-23T11:04:34.036Z,7.20
2019-02-23T11:09:37.767Z,6.80
2019-02-23T11:14:41.025Z,7.40
2019-02-23T11:19:44.334Z,7.23
2019-02-23T11:24:48.013Z,6.33
2019-02-23T11:29:51.300Z,5.67
2019-02-23T11:34:54.592Z,5.57
2019-02-23T11:39:57.908Z,4.97
2019-02-23T11:45:01.186Z,4.60
2019-02-23T11:50:06.515Z,5.50
2019-02-23T11:55:09.877Z,3.93
2019-02-23T12:00:14.399Z,3.90
2019-02-23T12:05:17.929Z,3.10
2019-02-23T12:10:21.224Z,3.17
2019-02-23T12:15:24.530Z,3.60
2019-02-23T12:20:27.840Z,3.40
2019-02-23T12:25:31.196Z,3.37
2019-02-23T12:30:34.486Z,3.37
2019-02-23T12:35:37.801Z,3.40
2019-02-23T12:40:41.332Z,2.80
2019-02-23T12:45:44.874Z,3.27
2019-02-23T12:50:48.387Z,2.90
2019-02-23T12:55:51.946Z,3.30
2019-02-23T13:00:55.481Z,2.97
2019-02-23T13:05:58.783Z,5.93
2019-02-23T13:11:02.380Z,5.17
2019-02-23T13:16:08.836Z,5.53
2019-02-23T13:21:32.131Z,5.10
2019-02-23T13:26:58.168Z,4.43
2019-02-23T13:32:10.398Z,5.40
2019-02-23T13:37:22.607Z,4.97
2019-02-23T13:42:50.221Z,4.87
2019-02-23T13:47:59.227Z,5.43
2019-02-23T13:53:11.539Z,6.30
2019-02-23T13:58:30.130Z,5.77
2019-02-23T14:03:39.520Z,5.70
2019-02-23T14:09:09.420Z,6.13
2019-02-23T14:14:24.880Z,5.77
2019-02-23T14:19:59.917Z,5.07
2019-02-23T14:25:24.730Z,5.57
2019-02-23T14:30:47.613Z,6.07
2019-02-23T14:35:56.997Z,7.30
2019-02-23T14:41:12.478Z,7.10
2019-02-23T14:46:39.568Z,8.10
2019-02-23T14:52:04.119Z,6.27
2019-02-23T14:57:31.735Z,7.23
2019-02-23T15:02:41.151Z,6.83
2019-02-23T15:08:05.427Z,8.90
2019-02-23T15:13:42.295Z,9.47
2019-02-23T15:18:57.736Z,9.30
2019-02-23T15:24:09.857Z,10.30
2019-02-23T15:29:37.685Z,10.23
2019-02-23T15:35:02.216Z,10.20
2019-02-23T15:40:23.763Z,9.57
2019-02-23T15:45:48.499Z,9.63
2019-02-23T15:50:51.793Z,9.57
2019-02-23T15:55:55.304Z,9.20
2019-02-23T16:00:58.825Z,9.40
2019-02-23T16:06:02.109Z,9.27
2019-02-23T16:11:05.409Z,9.87
2019-02-23T16:16:08.733Z,8.97
2019-02-23T16:21:12.266Z,9.27
2019-02-23T16:26:15.857Z,9.77
2019-02-23T16:31:19.413Z,8.90
2019-02-23T16:36:22.762Z,9.67
2019-02-23T16:41:26.073Z,9.70
2019-02-23T16:46:30.222Z,9.30
2019-02-23T16:51:33.571Z,10.70
2019-02-23T16:56:36.850Z,11.47
2019-02-23T17:01:40.425Z,9.67
2019-02-23T17:06:43.992Z,11.23
2019-02-23T17:11:47.286Z,10.00
2019-02-23T17:16:50.806Z,11.90
2019-02-23T17:21:54.092Z,11.70
2019-02-23T17:26:57.384Z,11.63
2019-02-23T17:32:00.918Z,11.03
2019-02-23T17:37:04.445Z,11.43
2019-02-23T17:42:07.888Z,10.33
2019-02-23T17:47:11.612Z,11.80
2019-02-23T17:52:14.996Z,10.93
2019-02-23T17:57:18.286Z,12.30
2019-02-23T18:02:21.592Z,12.00
2019-02-23T18:07:25.229Z,12.40
2019-02-23T18:12:29.714Z,11.37
2019-02-23T18:17:34.732Z,12.60
2019-02-23T18:22:38.040Z,13.10
2019-02-23T18:27:41.623Z,12.43
2019-02-23T18:32:45.153Z,12.97
2019-02-23T18:37:48.694Z,15.20
2019-02-23T18:42:52.223Z,14.03
2019-02-23T18:47:55.780Z,14.33
2019-02-23T18:52:59.077Z,15.60
2019-02-23T18:58:02.377Z,15.27
2019-02-23T19:03:06.373Z,15.03
2019-02-23T19:08:09.939Z,13.63
2019-02-23T19:13:13.248Z,14.13
2019-02-23T19:18:16.771Z,14.13
2019-02-23T19:23:20.084Z,13.97
2019-02-23T19:28:23.621Z,13.50
2019-02-23T19:33:27.164Z,13.97
2019-02-23T19:38:30.849Z,13.30
2019-02-23T19:43:34.435Z,13.07
2019-02-23T19:48:37.972Z,13.33
2019-02-23T19:53:42.563Z,13.73
2019-02-23T19:58:46.085Z,12.70
2019-02-23T20:03:49.639Z,13.50
2019-02-23T20:08:52.940Z,10.67
2019-02-23T20:13:56.236Z,11.80
2019-02-23T20:18:59.515Z,9.90
2019-02-23T20:24:02.793Z,10.03
2019-02-23T20:29:06.067Z,9.67
2019-02-23T20:34:09.347Z,9.00
2019-02-23T20:39:12.636Z,9.40
2019-02-23T20:44:15.925Z,10.13
2019-02-23T20:49:19.287Z,10.10
2019-02-23T20:54:23.715Z,10.47
2019-02-23T20:59:27.003Z,9.83
2019-02-23T21:04:30.537Z,10.47
2019-02-23T21:09:34.082Z,9.97
2019-02-23T21:14:37.364Z,10.90
2019-02-23T21:19:40.663Z,10.00
2019-02-23T21:24:44.207Z,9.87
2019-02-23T21:29:47.744Z,9.80
2019-02-23T21:34:51.334Z,10.23
2019-02-23T21:39:54.876Z,9.33
2019-02-23T21:44:58.145Z,9.27
2019-02-23T21:50:01.669Z,7.90
2019-02-23T21:55:05.385Z,7.23
2019-02-23T22:00:10.106Z,6.40
2019-02-23T22:05:13.590Z,6.23
2019-02-23T22:10:16.874Z,7.30
2019-02-23T22:15:20.154Z,6.27
2019-02-23T22:20:23.707Z,6.73
2019-02-23T22:25:27.214Z,6.50
2019-02-23T22:30:30.481Z,6.30
2019-02-23T22:35:34.019Z,7.07
2019-02-23T22:40:37.277Z,6.63
2019-02-23T22:45:40.806Z,6.43
2019-02-23T22:50:44.326Z,6.17
2019-02-23T22:55:47.878Z,5.83
2019-02-23T23:00:55.673Z,6.00
2019-02-23T23:05:59.009Z,6.13
2019-02-23T23:11:02.477Z,5.93
2019-02-23T23:16:06.039Z,6.17
2019-02-23T23:21:09.316Z,6.60
2019-02-23T23:26:14.366Z,6.27
2019-02-23T23:31:18.238Z,6.23
2019-02-23T23:36:23.277Z,6.27
2019-02-23T23:41:26.806Z,6.03
2019-02-23T23:46:30.083Z,5.97
2019-02-23T23:51:33.618Z,5.93
2019-02-23T23:56:38.446Z,6.40
